Time;durP1;ratioP1;P1;durP2;ratioP2;P2;SDS_P1;SDS_P2;PMS_P1;PMS_P2;Temp;Humidity;BMP_temperature;BMP_pressure;BME280_temperature;BME280_humidity;BME280_pressure;Samples;Min_cycle;Max_cycle;Signal;HPM_P1;HPM_P2
2023/06/24 00:02:23;;;;;;;0.43;0.40;;;;;;;;;;5025668;28;20088;-72
2023/06/24 00:04:51;;;;;;;0.13;0.13;;;;;;;;;;5026102;28;20058;-73
2023/06/24 00:07:19;;;;;;;0.22;0.22;;;;;;;;;;5024106;28;20101;-72
2023/06/24 00:09:46;;;;;;;0.20;0.20;;;;;;;;;;5026041;28;20141;-73
2023/06/24 00:12:18;;;;;;;0.35;0.30;;;;;;;;;;5030609;28;20505;-73
2023/06/24 00:14:46;;;;;;;0.45;0.45;;;;;;;;;;5039243;28;20062;-73
2023/06/24 00:17:12;;;;;;;0.10;0.10;;;;;;;;;;5025868;28;20097;-74
2023/06/24 00:19:38;;;;;;;0.20;0.20;;;;;;;;;;5040958;28;20136;-73
2023/06/24 00:22:06;;;;;;;0.10;0.10;;;;;;;;;;5042019;28;20407;-73
2023/06/24 00:24:32;;;;;;;0.63;0.60;;;;;;;;;;5027729;28;20509;-74
2023/06/24 00:26:59;;;;;;;0.47;0.47;;;;;;;;;;5045020;28;20129;-74
2023/06/24 00:29:25;;;;;;;0.20;0.20;;;;;;;;;;5045358;28;20080;-73
2023/06/24 00:31:52;;;;;;;0.73;0.40;;;;;;;;;;5044841;28;20509;-73
2023/06/24 00:34:23;;;;;;;0.15;0.15;;;;;;;;;;5041183;28;20045;-73
2023/06/24 00:36:51;;;;;;;0.60;0.30;;;;;;;;;;5025773;28;20054;-73
2023/06/24 00:39:17;;;;;;;0.20;0.20;;;;;;;;;;5027251;28;20554;-73
2023/06/24 00:41:44;;;;;;;0.10;0.10;;;;;;;;;;5025388;28;20584;-73
2023/06/24 00:44:11;;;;;;;0.10;0.10;;;;;;;;;;5026246;28;20065;-72
2023/06/24 00:46:39;;;;;;;0.20;0.20;;;;;;;;;;5044556;28;20064;-76
2023/06/24 00:49:06;;;;;;;0.10;0.10;;;;;;;;;;5040243;28;20050;-73
2023/06/24 00:51:35;;;;;;;0.10;0.10;;;;;;;;;;5025375;28;20061;-73
2023/06/24 00:54:02;;;;;;;0.17;0.17;;;;;;;;;;5025179;28;20505;-73
2023/06/24 00:56:33;;;;;;;0.10;0.10;;;;;;;;;;5025988;28;20188;-73
2023/06/24 02:27:59;;;;;;;0.20;0.20;;;;;;;;;;4814077;26;20054;-74
2023/06/24 02:30:26;;;;;;;0.20;0.20;;;;;;;;;;5006521;28;20061;-76
2023/06/24 02:35:28;;;;;;;0.30;0.28;;;;;;;;;;5068662;22;20112;-73
2023/06/24 02:37:54;;;;;;;1.55;0.65;;;;;;;;;;5028160;28;20049;-72
2023/06/24 02:40:21;;;;;;;0.13;0.10;;;;;;;;;;5022362;28;20057;-71
2023/06/24 02:42:47;;;;;;;0.10;0.10;;;;;;;;;;5034228;28;20484;-72
2023/06/24 02:45:14;;;;;;;0.10;0.10;;;;;;;;;;5026894;28;20064;-74
2023/06/24 02:47:41;;;;;;;0.45;0.38;;;;;;;;;;5023426;28;20113;-75
2023/06/24 02:50:09;;;;;;;0.10;0.10;;;;;;;;;;5023601;28;20509;-74
2023/06/24 02:52:37;;;;;;;1.02;0.95;;;;;;;;;;5021553;28;20057;-74
2023/06/24 02:55:04;;;;;;;0.35;0.35;;;;;;;;;;5027174;28;20136;-74
2023/06/24 02:57:31;;;;;;;0.30;0.30;;;;;;;;;;5023272;28;20498;-74
2023/06/24 02:59:58;;;;;;;0.10;0.10;;;;;;;;;;5006562;28;20065;-72
2023/06/24 03:02:25;;;;;;;0.20;0.20;;;;;;;;;;5007275;28;20056;-72
2023/06/24 03:04:52;;;;;;;0.47;0.30;;;;;;;;;;5024499;28;20169;-72
2023/06/24 03:07:20;;;;;;;0.10;0.10;;;;;;;;;;5023210;28;20141;-73
2023/06/24 03:09:47;;;;;;;0.10;0.10;;;;;;;;;;5045333;28;20137;-73
2023/06/24 03:12:13;;;;;;;0.20;0.20;;;;;;;;;;5027381;28;20050;-72
2023/06/24 03:14:40;;;;;;;0.13;0.13;;;;;;;;;;5023552;28;20085;-73
2023/06/24 03:17:06;;;;;;;0.25;0.25;;;;;;;;;;5020440;28;20078;-73
2023/06/24 03:19:33;;;;;;;0.10;0.10;;;;;;;;;;5025765;28;20136;-74
2023/06/24 03:21:59;;;;;;;0.55;0.30;;;;;;;;;;5020096;28;20116;-73
2023/06/24 03:24:26;;;;;;;0.10;0.10;;;;;;;;;;5023661;28;20077;-72
2023/06/24 03:26:56;;;;;;;0.10;0.10;;;;;;;;;;5026617;28;20053;-72
2023/06/24 03:29:23;;;;;;;0.52;0.32;;;;;;;;;;5021694;28;20054;-73
2023/06/24 03:31:50;;;;;;;0.10;0.10;;;;;;;;;;5006882;28;20054;-72
2023/06/24 03:34:16;;;;;;;0.00;0.00;;;;;;;;;;5020663;28;20074;-72
2023/06/24 03:36:43;;;;;;;0.08;0.08;;;;;;;;;;5025200;28;20046;-73
2023/06/24 03:39:10;;;;;;;0.00;0.00;;;;;;;;;;5025532;28;20060;-73
2023/06/24 03:41:36;;;;;;;0.10;0.10;;;;;;;;;;5026500;28;20598;-73
2023/06/24 03:44:02;;;;;;;0.38;0.38;;;;;;;;;;5021582;28;20062;-75
2023/06/24 03:46:32;;;;;;;0.08;0.08;;;;;;;;;;5026685;28;20100;-72
2023/06/24 03:49:00;;;;;;;0.10;0.10;;;;;;;;;;5014261;28;20522;-73
2023/06/24 03:51:26;;;;;;;0.10;0.10;;;;;;;;;;4987139;28;20170;-73
2023/06/24 03:53:53;;;;;;;0.47;0.30;;;;;;;;;;5007928;28;20969;-72
2023/06/24 03:56:19;;;;;;;0.35;0.35;;;;;;;;;;4987534;28;20062;-72
2023/06/24 03:58:46;;;;;;;0.00;0.00;;;;;;;;;;5018668;28;20050;-72
2023/06/24 04:01:12;;;;;;;0.10;0.10;;;;;;;;;;5026121;28;20118;-73
2023/06/24 04:03:39;;;;;;;0.28;0.28;;;;;;;;;;5017072;28;20498;-74
2023/06/24 04:06:06;;;;;;;0.38;0.38;;;;;;;;;;5012373;28;20514;-72
2023/06/24 04:08:32;;;;;;;0.10;0.10;;;;;;;;;;5019161;28;20141;-72
2023/06/24 04:11:00;;;;;;;0.20;0.20;;;;;;;;;;5025528;28;20053;-73
2023/06/24 04:13:26;;;;;;;0.30;0.30;;;;;;;;;;5021670;28;20057;-74
2023/06/24 04:15:53;;;;;;;0.47;0.47;;;;;;;;;;5026058;28;20577;-72
2023/06/24 04:18:19;;;;;;;0.10;0.10;;;;;;;;;;5026252;28;20112;-72
2023/06/24 04:20:46;;;;;;;0.30;0.30;;;;;;;;;;5025908;28;20104;-72
2023/06/24 04:23:14;;;;;;;0.40;0.15;;;;;;;;;;5013778;28;20061;-73
2023/06/24 04:25:41;;;;;;;0.10;0.10;;;;;;;;;;5005839;28;20050;-72
2023/06/24 04:28:08;;;;;;;0.10;0.10;;;;;;;;;;5018465;28;20506;-73
2023/06/24 04:30:40;;;;;;;0.10;0.10;;;;;;;;;;5025610;28;20050;-75
2023/06/24 04:33:07;;;;;;;0.10;0.10;;;;;;;;;;5004566;28;20053;-73
2023/06/24 04:35:33;;;;;;;0.17;0.17;;;;;;;;;;5019890;28;20064;-73
2023/06/24 04:38:00;;;;;;;0.17;0.17;;;;;;;;;;5023109;28;20060;-73
2023/06/24 04:40:27;;;;;;;0.10;0.10;;;;;;;;;;5015526;28;20047;-73
2023/06/24 04:42:54;;;;;;;0.20;0.20;;;;;;;;;;5007401;28;20113;-73
2023/06/24 04:45:21;;;;;;;0.10;0.10;;;;;;;;;;5022042;28;20718;-73
2023/06/24 04:47:47;;;;;;;0.73;0.60;;;;;;;;;;5025023;28;20065;-73
2023/06/24 04:50:14;;;;;;;0.10;0.10;;;;;;;;;;5024492;28;20054;-73
2023/06/24 04:52:41;;;;;;;0.25;0.17;;;;;;;;;;5025325;28;20094;-73
2023/06/24 04:55:07;;;;;;;0.10;0.10;;;;;;;;;;5024967;28;20060;-73
2023/06/24 04:57:34;;;;;;;0.10;0.10;;;;;;;;;;5010920;28;20510;-73
2023/06/24 05:00:01;;;;;;;0.20;0.20;;;;;;;;;;5023886;28;20081;-73
2023/06/24 05:02:27;;;;;;;0.10;0.10;;;;;;;;;;5025314;28;20050;-73
2023/06/24 05:04:54;;;;;;;0.10;0.10;;;;;;;;;;5024989;28;20815;-73
2023/06/24 05:07:21;;;;;;;0.20;0.20;;;;;;;;;;5020764;28;20418;-73
2023/06/24 05:09:48;;;;;;;0.10;0.10;;;;;;;;;;5024684;28;20110;-73
2023/06/24 05:12:15;;;;;;;0.17;0.17;;;;;;;;;;5024781;28;20061;-73
2023/06/24 05:14:41;;;;;;;0.10;0.10;;;;;;;;;;5014849;28;20054;-73
2023/06/24 05:17:08;;;;;;;0.17;0.17;;;;;;;;;;5015132;28;21330;-73
2023/06/24 05:19:35;;;;;;;0.40;0.30;;;;;;;;;;5024375;28;20080;-73
2023/06/24 05:22:01;;;;;;;0.75;0.45;;;;;;;;;;5020170;28;20050;-72
2023/06/24 05:24:28;;;;;;;0.30;0.30;;;;;;;;;;5023438;28;20104;-73
2023/06/24 05:26:55;;;;;;;0.30;0.25;;;;;;;;;;5021813;28;20045;-73
2023/06/24 05:29:21;;;;;;;0.20;0.20;;;;;;;;;;5024370;28;20531;-73
2023/06/24 05:31:47;;;;;;;0.10;0.10;;;;;;;;;;5020493;28;20100;-73
2023/06/24 05:34:14;;;;;;;0.30;0.30;;;;;;;;;;5037039;28;20525;-74
2023/06/24 05:36:40;;;;;;;0.10;0.10;;;;;;;;;;5026760;28;20057;-73
2023/06/24 05:39:07;;;;;;;0.10;0.10;;;;;;;;;;5024292;28;20050;-73
2023/06/24 05:41:35;;;;;;;0.30;0.28;;;;;;;;;;5022137;28;20048;-72
2023/06/24 05:44:06;;;;;;;0.45;0.40;;;;;;;;;;5026117;28;20057;-73
2023/06/24 05:46:33;;;;;;;0.65;0.65;;;;;;;;;;5027450;28;20065;-74
2023/06/24 05:49:00;;;;;;;0.30;0.20;;;;;;;;;;5013151;28;20414;-74
2023/06/24 05:51:27;;;;;;;0.75;0.75;;;;;;;;;;5012689;28;20194;-73
2023/06/24 05:53:53;;;;;;;0.10;0.10;;;;;;;;;;5032430;28;20054;-73
2023/06/24 05:56:20;;;;;;;0.52;0.50;;;;;;;;;;5032048;28;20088;-73
2023/06/24 05:58:46;;;;;;;0.73;0.68;;;;;;;;;;5026372;28;20199;-74
2023/06/24 06:01:13;;;;;;;0.38;0.30;;;;;;;;;;5027628;28;20144;-73
2023/06/24 06:03:39;;;;;;;1.75;0.40;;;;;;;;;;5026810;28;20058;-73
2023/06/24 06:06:06;;;;;;;0.32;0.20;;;;;;;;;;5023543;28;20564;-72
2023/06/24 06:08:33;;;;;;;0.15;0.15;;;;;;;;;;5025656;28;20577;-73
2023/06/24 06:11:02;;;;;;;4.10;1.00;;;;;;;;;;5026784;28;20054;-73
2023/06/24 06:13:28;;;;;;;0.75;0.55;;;;;;;;;;5027975;28;20057;-73
2023/06/24 06:15:55;;;;;;;0.63;0.63;;;;;;;;;;5026652;28;20054;-75
2023/06/24 06:18:22;;;;;;;0.57;0.50;;;;;;;;;;5027040;28;20058;-73
2023/06/24 06:20:49;;;;;;;0.22;0.22;;;;;;;;;;5025485;28;20094;-73
2023/06/24 06:23:16;;;;;;;0.10;0.10;;;;;;;;;;5014670;28;20149;-73
2023/06/24 06:25:42;;;;;;;0.73;0.73;;;;;;;;;;5024524;28;20099;-73
2023/06/24 06:28:11;;;;;;;0.52;0.43;;;;;;;;;;5040484;28;20050;-73
2023/06/24 06:30:38;;;;;;;0.30;0.30;;;;;;;;;;5025455;28;20124;-73
2023/06/24 06:33:04;;;;;;;0.30;0.30;;;;;;;;;;5027637;28;20054;-73
2023/06/24 06:35:31;;;;;;;0.55;0.47;;;;;;;;;;5026543;28;20061;-73
2023/06/24 06:37:58;;;;;;;0.40;0.40;;;;;;;;;;5021923;28;20061;-73
2023/06/24 06:40:24;;;;;;;0.35;0.30;;;;;;;;;;5024468;28;22798;-74
2023/06/24 06:42:51;;;;;;;0.43;0.30;;;;;;;;;;5025942;28;20057;-73
2023/06/24 06:45:18;;;;;;;0.30;0.30;;;;;;;;;;5025811;28;20618;-77
2023/06/24 06:47:45;;;;;;;0.20;0.20;;;;;;;;;;5024112;28;20080;-74
2023/06/24 06:50:11;;;;;;;0.43;0.30;;;;;;;;;;5026393;28;20529;-74
2023/06/24 06:52:38;;;;;;;0.65;0.50;;;;;;;;;;5024111;28;20089;-74
2023/06/24 06:55:05;;;;;;;0.25;0.22;;;;;;;;;;5027196;28;20057;-75
2023/06/24 06:57:31;;;;;;;0.20;0.20;;;;;;;;;;5016808;28;20050;-75
2023/06/24 06:59:58;;;;;;;0.20;0.20;;;;;;;;;;5019849;28;20081;-74
2023/06/24 07:02:24;;;;;;;0.15;0.15;;;;;;;;;;5018487;28;20062;-74
2023/06/24 07:04:51;;;;;;;0.15;0.15;;;;;;;;;;5021378;28;20050;-74
2023/06/24 07:07:17;;;;;;;0.10;0.10;;;;;;;;;;5026458;28;20058;-73
2023/06/24 07:09:46;;;;;;;0.20;0.20;;;;;;;;;;5024963;28;20054;-73
2023/06/24 07:12:13;;;;;;;0.32;0.30;;;;;;;;;;5026476;28;20053;-74
2023/06/24 07:17:15;;;;;;;0.20;0.20;;;;;;;;;;5024719;22;20082;-73
2023/06/24 07:19:41;;;;;;;1.17;0.65;;;;;;;;;;5000392;28;20209;-74
2023/06/24 07:22:08;;;;;;;0.65;0.30;;;;;;;;;;4995636;28;20050;-74
2023/06/24 07:24:34;;;;;;;0.47;0.38;;;;;;;;;;4999144;28;20533;-74
2023/06/24 07:27:01;;;;;;;0.22;0.20;;;;;;;;;;5004458;28;20055;-75
2023/06/24 07:29:28;;;;;;;0.35;0.30;;;;;;;;;;5003221;28;20852;-74
2023/06/24 07:31:54;;;;;;;0.82;0.70;;;;;;;;;;5003371;28;20058;-74
2023/06/24 07:34:21;;;;;;;0.30;0.30;;;;;;;;;;5002568;28;20562;-73
2023/06/24 07:36:47;;;;;;;0.15;0.15;;;;;;;;;;5002423;28;20525;-73
2023/06/24 07:39:14;;;;;;;0.70;0.40;;;;;;;;;;4997943;28;20146;-73
2023/06/24 07:41:42;;;;;;;0.30;0.30;;;;;;;;;;4992882;28;20054;-73
2023/06/24 07:44:08;;;;;;;0.25;0.25;;;;;;;;;;5004931;28;20047;-73
2023/06/24 07:46:35;;;;;;;0.73;0.50;;;;;;;;;;5011603;28;20062;-72
2023/06/24 07:49:01;;;;;;;0.80;0.43;;;;;;;;;;5004167;28;20094;-73
2023/06/24 07:51:28;;;;;;;0.75;0.50;;;;;;;;;;5002544;28;20058;-74
2023/06/24 07:53:55;;;;;;;0.25;0.25;;;;;;;;;;5003434;28;20058;-74
2023/06/24 07:56:21;;;;;;;0.60;0.55;;;;;;;;;;4999478;28;20141;-74
2023/06/24 07:58:48;;;;;;;0.28;0.20;;;;;;;;;;5000616;28;20064;-74
2023/06/24 08:01:14;;;;;;;0.30;0.30;;;;;;;;;;5017603;28;20084;-74
2023/06/24 08:03:41;;;;;;;0.28;0.25;;;;;;;;;;4997557;28;20581;-74
2023/06/24 08:06:08;;;;;;;0.20;0.20;;;;;;;;;;5002950;28;20121;-74
2023/06/24 08:08:35;;;;;;;0.38;0.38;;;;;;;;;;5004610;28;20058;-74
2023/06/24 08:11:05;;;;;;;0.20;0.20;;;;;;;;;;5006337;28;20141;-74
2023/06/24 08:13:31;;;;;;;0.20;0.20;;;;;;;;;;5003536;28;20066;-74
2023/06/24 08:15:58;;;;;;;0.77;0.68;;;;;;;;;;5006079;28;20507;-74
2023/06/24 08:18:25;;;;;;;0.25;0.25;;;;;;;;;;5012933;28;20084;-74
2023/06/24 08:20:51;;;;;;;0.20;0.20;;;;;;;;;;5018084;28;20054;-74
2023/06/24 08:23:18;;;;;;;0.47;0.47;;;;;;;;;;5032440;28;20541;-74
2023/06/24 08:25:44;;;;;;;0.40;0.40;;;;;;;;;;5023326;28;20057;-74
2023/06/24 08:28:11;;;;;;;0.30;0.30;;;;;;;;;;5011479;28;20089;-75
2023/06/24 08:30:38;;;;;;;0.20;0.20;;;;;;;;;;5019289;28;20104;-74
2023/06/24 08:33:04;;;;;;;0.30;0.30;;;;;;;;;;5025176;28;20548;-75
2023/06/24 08:35:31;;;;;;;0.30;0.30;;;;;;;;;;5026215;28;20557;-75
2023/06/24 08:38:06;;;;;;;0.30;0.30;;;;;;;;;;5019607;28;20081;-74
2023/06/24 08:40:33;;;;;;;0.22;0.22;;;;;;;;;;5024353;28;20058;-75
2023/06/24 08:43:00;;;;;;;0.30;0.30;;;;;;;;;;5023180;28;20592;-75
2023/06/24 08:45:26;;;;;;;0.40;0.40;;;;;;;;;;5022653;28;20080;-74
2023/06/24 08:47:54;;;;;;;0.20;0.20;;;;;;;;;;5023841;28;20992;-75
2023/06/24 08:50:23;;;;;;;0.20;0.20;;;;;;;;;;5023410;28;20081;-76
2023/06/24 08:52:51;;;;;;;0.22;0.22;;;;;;;;;;5018799;28;20232;-75
2023/06/24 08:55:20;;;;;;;0.20;0.20;;;;;;;;;;5019954;28;20092;-75
2023/06/24 08:57:49;;;;;;;0.43;0.40;;;;;;;;;;5024720;28;21101;-75
2023/06/24 09:00:17;;;;;;;0.28;0.25;;;;;;;;;;5024162;28;20054;-74
2023/06/24 09:02:45;;;;;;;1.52;0.88;;;;;;;;;;5013891;28;20133;-74
2023/06/24 09:05:11;;;;;;;0.20;0.20;;;;;;;;;;5005210;28;20104;-73
2023/06/24 09:07:38;;;;;;;0.20;0.20;;;;;;;;;;5006774;28;20058;-74
2023/06/24 09:10:05;;;;;;;0.40;0.40;;;;;;;;;;5019499;28;20078;-73
2023/06/24 09:12:32;;;;;;;0.30;0.30;;;;;;;;;;5022653;28;21334;-74
2023/06/24 09:14:59;;;;;;;0.52;0.38;;;;;;;;;;5024702;28;20109;-73
2023/06/24 09:17:27;;;;;;;0.20;0.20;;;;;;;;;;5022687;28;20057;-73
2023/06/24 09:20:02;;;;;;;0.28;0.28;;;;;;;;;;5022872;28;20085;-76
2023/06/24 09:22:30;;;;;;;0.30;0.30;;;;;;;;;;5009324;28;21017;-75
2023/06/24 09:25:00;;;;;;;0.93;0.70;;;;;;;;;;5022964;28;20060;-74
2023/06/24 09:27:30;;;;;;;0.30;0.30;;;;;;;;;;5019924;28;20058;-74
2023/06/24 09:29:57;;;;;;;0.30;0.30;;;;;;;;;;5017660;28;20053;-73
2023/06/24 09:32:26;;;;;;;0.30;0.30;;;;;;;;;;5023097;28;20065;-73
2023/06/24 09:34:53;;;;;;;;;;;;;;;;;;5018554;28;20462;-74
2023/06/24 09:37:26;;;;;;;0.20;0.20;;;;;;;;;;5020283;28;48369;-73
2023/06/24 09:39:54;;;;;;;0.30;0.30;;;;;;;;;;5022346;28;20058;-73
2023/06/24 09:42:22;;;;;;;0.30;0.30;;;;;;;;;;5016524;28;20061;-72
2023/06/24 09:44:52;;;;;;;0.30;0.30;;;;;;;;;;5019851;28;20057;-73
2023/06/24 09:50:38;;;;;;;0.30;0.30;;;;;;;;;;5540094;23;20773;-75
2023/06/24 09:53:06;;;;;;;0.40;0.40;;;;;;;;;;5036319;28;20061;-75
2023/06/24 09:55:32;;;;;;;0.65;0.40;;;;;;;;;;5026432;28;20054;-74
2023/06/24 09:57:59;;;;;;;0.30;0.30;;;;;;;;;;5027793;28;20050;-75
2023/06/24 10:00:26;;;;;;;0.40;0.40;;;;;;;;;;5022524;28;20056;-76
2023/06/24 10:02:54;;;;;;;0.40;0.40;;;;;;;;;;5024395;28;20108;-76
2023/06/24 10:05:22;;;;;;;0.30;0.30;;;;;;;;;;5025030;28;20073;-74
2023/06/24 10:07:49;;;;;;;0.38;0.38;;;;;;;;;;5022056;28;20054;-77
2023/06/24 10:10:15;;;;;;;0.30;0.30;;;;;;;;;;5025121;28;20054;-75
2023/06/24 10:12:43;;;;;;;1.25;0.65;;;;;;;;;;5024961;28;20053;-77
2023/06/24 10:15:09;;;;;;;0.40;0.40;;;;;;;;;;5022890;28;20089;-75
2023/06/24 10:17:36;;;;;;;0.40;0.40;;;;;;;;;;5022113;28;20119;-76
2023/06/24 10:20:03;;;;;;;0.35;0.35;;;;;;;;;;5029832;28;20085;-74
2023/06/24 10:22:31;;;;;;;0.30;0.30;;;;;;;;;;5026504;28;20053;-75
2023/06/24 10:25:01;;;;;;;0.50;0.50;;;;;;;;;;5023746;28;20418;-75
2023/06/24 10:27:32;;;;;;;2.05;0.70;;;;;;;;;;5022378;28;20061;-75
2023/06/24 10:30:02;;;;;;;0.30;0.30;;;;;;;;;;5027280;28;20459;-74
2023/06/24 10:32:39;;;;;;;0.35;0.35;;;;;;;;;;5027461;28;20933;-75
2023/06/24 10:35:05;;;;;;;0.57;0.57;;;;;;;;;;5026179;28;20097;-75
2023/06/24 10:37:32;;;;;;;0.40;0.40;;;;;;;;;;5025587;28;20054;-73
2023/06/24 10:40:00;;;;;;;0.88;0.63;;;;;;;;;;5026949;28;20064;-75
2023/06/24 10:42:37;;;;;;;0.40;0.40;;;;;;;;;;5028176;28;20081;-75
2023/06/24 10:45:10;;;;;;;0.38;0.38;;;;;;;;;;5037450;28;20640;-75
2023/06/24 10:47:39;;;;;;;0.60;0.60;;;;;;;;;;5029871;28;20155;-75
2023/06/24 10:50:06;;;;;;;0.50;0.50;;;;;;;;;;5027458;28;20062;-77
2023/06/24 10:52:37;;;;;;;0.40;0.40;;;;;;;;;;5027209;28;20493;-76
2023/06/24 10:55:04;;;;;;;0.68;0.60;;;;;;;;;;5037530;28;20058;-76
2023/06/24 10:57:30;;;;;;;0.50;0.50;;;;;;;;;;5027378;28;20077;-76
2023/06/24 10:59:57;;;;;;;0.35;0.35;;;;;;;;;;5028108;28;20111;-75
2023/06/24 11:02:25;;;;;;;0.60;0.60;;;;;;;;;;5027712;28;20460;-76
2023/06/24 11:04:57;;;;;;;1.00;0.60;;;;;;;;;;5026590;28;20049;-76
2023/06/24 11:07:24;;;;;;;0.40;0.40;;;;;;;;;;5037316;28;20041;-74
2023/06/24 11:09:55;;;;;;;1.30;0.65;;;;;;;;;;5027170;28;20084;-75
2023/06/24 11:12:25;;;;;;;0.47;0.47;;;;;;;;;;5034218;28;20144;-76
2023/06/24 11:14:55;;;;;;;0.40;0.40;;;;;;;;;;5045074;28;20053;-77
2023/06/24 11:17:22;;;;;;;0.47;0.47;;;;;;;;;;5044324;28;20521;-77
2023/06/24 11:19:49;;;;;;;0.85;0.75;;;;;;;;;;5040864;28;20054;-78
2023/06/24 11:22:15;;;;;;;0.52;0.50;;;;;;;;;;5027512;28;20065;-76
2023/06/24 11:24:45;;;;;;;0.45;0.45;;;;;;;;;;5027352;28;20052;-77
2023/06/24 11:27:12;;;;;;;1.00;0.90;;;;;;;;;;5033851;28;20106;-76
2023/06/24 11:29:38;;;;;;;0.73;0.63;;;;;;;;;;5026791;28;20137;-76
2023/06/24 11:32:08;;;;;;;0.57;0.57;;;;;;;;;;5024672;28;20134;-75
2023/06/24 11:34:36;;;;;;;0.70;0.57;;;;;;;;;;5029801;28;20140;-76
2023/06/24 11:37:12;;;;;;;0.40;0.40;;;;;;;;;;5034983;28;20430;-76
2023/06/24 11:39:39;;;;;;;0.30;0.30;;;;;;;;;;5031780;28;20064;-76
2023/06/24 11:42:07;;;;;;;5.00;2.22;;;;;;;;;;5032365;28;20145;-76
2023/06/24 11:44:34;;;;;;;0.50;0.50;;;;;;;;;;5025219;28;20056;-75
2023/06/24 11:47:07;;;;;;;0.40;0.40;;;;;;;;;;5029099;28;20060;-76
2023/06/24 11:49:55;;;;;;;0.50;0.40;;;;;;;;;;5025577;28;20980;-76
2023/06/24 11:52:41;;;;;;;0.50;0.50;;;;;;;;;;5044103;28;20049;-77
2023/06/24 11:55:11;;;;;;;0.63;0.50;;;;;;;;;;5043478;28;20065;-77
2023/06/24 11:57:56;;;;;;;0.40;0.40;;;;;;;;;;5026180;28;20072;-77
2023/06/24 12:00:30;;;;;;;0.43;0.40;;;;;;;;;;5027221;28;20077;-76
2023/06/24 12:02:58;;;;;;;0.50;0.43;;;;;;;;;;5029374;28;20065;-78
2023/06/24 12:05:31;;;;;;;0.45;0.45;;;;;;;;;;5022542;28;20054;-75
2023/06/24 12:07:59;;;;;;;0.73;0.45;;;;;;;;;;5040213;28;20506;-76
2023/06/24 12:10:26;;;;;;;0.52;0.47;;;;;;;;;;5044708;28;20450;-76
2023/06/24 12:12:53;;;;;;;0.68;0.57;;;;;;;;;;5037493;28;20056;-77
2023/06/24 12:15:20;;;;;;;0.40;0.40;;;;;;;;;;5047801;28;20524;-76
2023/06/24 12:17:46;;;;;;;0.57;0.40;;;;;;;;;;5037803;28;20068;-77
2023/06/24 12:20:14;;;;;;;0.55;0.55;;;;;;;;;;5025858;28;20050;-76
2023/06/24 12:22:41;;;;;;;0.85;0.60;;;;;;;;;;5027293;28;20124;-75
2023/06/24 12:25:08;;;;;;;0.45;0.45;;;;;;;;;;5043204;28;20045;-76
2023/06/24 12:27:35;;;;;;;0.47;0.40;;;;;;;;;;5041188;28;20065;-76
2023/06/24 12:30:02;;;;;;;0.93;0.50;;;;;;;;;;5024616;28;20058;-76
2023/06/24 12:32:28;;;;;;;0.30;0.30;;;;;;;;;;5025941;28;20054;-77
2023/06/24 12:34:55;;;;;;;0.77;0.47;;;;;;;;;;5027092;28;20049;-74
2023/06/24 12:37:22;;;;;;;0.57;0.50;;;;;;;;;;5028627;28;20053;-77
2023/06/24 12:39:50;;;;;;;0.57;0.57;;;;;;;;;;5026942;28;20046;-76
2023/06/24 12:42:17;;;;;;;1.00;0.68;;;;;;;;;;5025941;28;20069;-74
2023/06/24 12:44:44;;;;;;;0.52;0.52;;;;;;;;;;5026223;28;20046;-77
2023/06/24 12:47:10;;;;;;;1.45;0.50;;;;;;;;;;5025171;28;20498;-75
2023/06/24 12:49:36;;;;;;;0.90;0.77;;;;;;;;;;5025947;28;20061;-75
2023/06/24 12:52:03;;;;;;;0.30;0.30;;;;;;;;;;5024958;28;20058;-74
2023/06/24 12:54:30;;;;;;;0.43;0.40;;;;;;;;;;5034323;28;20502;-75
2023/06/24 12:56:57;;;;;;;0.60;0.60;;;;;;;;;;5031232;28;20069;-75
2023/06/24 12:59:38;;;;;;;0.38;0.38;;;;;;;;;;5026447;28;20050;-75
2023/06/24 13:02:05;;;;;;;0.95;0.40;;;;;;;;;;5037063;28;20058;-75
2023/06/24 13:04:31;;;;;;;0.95;0.60;;;;;;;;;;5038834;28;20045;-75
2023/06/24 13:06:58;;;;;;;0.40;0.40;;;;;;;;;;5032447;28;20528;-76
2023/06/24 13:09:24;;;;;;;0.98;0.60;;;;;;;;;;5025054;28;21003;-77
2023/06/24 13:11:51;;;;;;;0.38;0.38;;;;;;;;;;5030941;28;20072;-77
2023/06/24 13:14:18;;;;;;;1.27;1.20;;;;;;;;;;5025742;28;20887;-76
2023/06/24 13:16:44;;;;;;;0.30;0.30;;;;;;;;;;5025795;28;20111;-76
2023/06/24 13:19:11;;;;;;;0.60;0.60;;;;;;;;;;5045103;28;20061;-77
2023/06/24 13:21:40;;;;;;;0.38;0.38;;;;;;;;;;5028610;28;20057;-79
2023/06/24 13:24:07;;;;;;;0.40;0.40;;;;;;;;;;5044679;28;20057;-78
2023/06/24 13:26:34;;;;;;;0.45;0.45;;;;;;;;;;5037166;28;20050;-74
2023/06/24 13:29:02;;;;;;;0.35;0.35;;;;;;;;;;5765989;23;20013;-76
2023/06/24 13:31:29;;;;;;;0.80;0.70;;;;;;;;;;5014362;28;20053;-76
2023/06/24 13:33:56;;;;;;;0.75;0.52;;;;;;;;;;5016384;28;20610;-75
2023/06/24 13:41:40;;;;;;;0.73;0.47;;;;;;;;;;5005602;28;20974;-73
2023/06/24 13:44:07;;;;;;;0.55;0.47;;;;;;;;;;5015690;28;20081;-74
2023/06/24 13:46:33;;;;;;;0.52;0.52;;;;;;;;;;5007220;28;20077;-76
2023/06/24 13:49:00;;;;;;;0.45;0.45;;;;;;;;;;4999605;28;20065;-75
2023/06/24 13:51:31;;;;;;;0.45;0.45;;;;;;;;;;5002970;28;20054;-74
2023/06/24 13:54:02;;;;;;;0.47;0.43;;;;;;;;;;5000239;28;20055;-75
2023/06/24 13:56:29;;;;;;;1.05;0.52;;;;;;;;;;5005162;28;20233;-76
2023/06/24 13:58:55;;;;;;;0.40;0.40;;;;;;;;;;5003069;28;20055;-76
2023/06/24 14:01:22;;;;;;;0.85;0.60;;;;;;;;;;5002057;28;20062;-73
2023/06/24 14:03:50;;;;;;;0.50;0.50;;;;;;;;;;4999438;28;20507;-74
2023/06/24 14:06:18;;;;;;;0.40;0.40;;;;;;;;;;5008468;28;20057;-76
2023/06/24 14:08:44;;;;;;;0.55;0.47;;;;;;;;;;5007206;28;20060;-74
2023/06/24 14:11:11;;;;;;;0.40;0.40;;;;;;;;;;5007115;28;20054;-76
2023/06/24 14:13:37;;;;;;;0.85;0.60;;;;;;;;;;5004350;28;20054;-75
2023/06/24 14:16:04;;;;;;;0.77;0.55;;;;;;;;;;5007800;28;20158;-76
2023/06/24 14:18:31;;;;;;;0.93;0.82;;;;;;;;;;4997171;28;20051;-75
2023/06/24 14:20:59;;;;;;;0.40;0.40;;;;;;;;;;4995065;28;20128;-75
2023/06/24 14:23:25;;;;;;;1.10;0.60;;;;;;;;;;5002649;28;20050;-74
2023/06/24 14:25:52;;;;;;;0.50;0.50;;;;;;;;;;5006509;28;20896;-75
2023/06/24 14:28:18;;;;;;;0.40;0.40;;;;;;;;;;5008366;28;20054;-74
2023/06/24 14:30:45;;;;;;;0.60;0.60;;;;;;;;;;5007432;28;20533;-75
2023/06/24 14:33:12;;;;;;;0.40;0.40;;;;;;;;;;4999708;28;20050;-76
2023/06/24 14:35:39;;;;;;;0.50;0.50;;;;;;;;;;5005075;28;20051;-76
2023/06/24 14:38:05;;;;;;;0.40;0.40;;;;;;;;;;5003738;28;20114;-75
2023/06/24 14:40:32;;;;;;;0.50;0.50;;;;;;;;;;5005119;28;20058;-73
2023/06/24 14:43:01;;;;;;;;;;;;;;;;;;5006298;28;20581;-72
2023/06/24 14:45:27;;;;;;;0.40;0.40;;;;;;;;;;5000830;28;47929;-73
2023/06/24 14:47:54;;;;;;;0.63;0.60;;;;;;;;;;4999014;28;20125;-75
2023/06/24 14:50:21;;;;;;;0.40;0.40;;;;;;;;;;5003704;28;20063;-73
2023/06/24 14:52:47;;;;;;;0.65;0.60;;;;;;;;;;4994383;28;20059;-73
2023/06/24 14:55:14;;;;;;;1.27;0.85;;;;;;;;;;5000793;28;20054;-72
2023/06/24 14:57:40;;;;;;;0.40;0.40;;;;;;;;;;4993308;28;20102;-75
2023/06/24 15:00:08;;;;;;;0.40;0.40;;;;;;;;;;5006502;28;20084;-73
2023/06/24 15:02:34;;;;;;;0.63;0.50;;;;;;;;;;5000828;28;20141;-73
2023/06/24 15:05:01;;;;;;;0.57;0.45;;;;;;;;;;5002938;28;20885;-74
2023/06/24 15:07:28;;;;;;;1.48;0.93;;;;;;;;;;5005389;28;20407;-74
2023/06/24 15:09:55;;;;;;;1.73;0.65;;;;;;;;;;4991994;28;20055;-76
2023/06/24 15:12:21;;;;;;;0.30;0.30;;;;;;;;;;5004190;28;20129;-76
2023/06/24 15:14:48;;;;;;;0.30;0.30;;;;;;;;;;5005109;28;20055;-75
2023/06/24 15:17:15;;;;;;;0.75;0.68;;;;;;;;;;5007011;28;20054;-76
2023/06/24 15:19:41;;;;;;;1.08;0.68;;;;;;;;;;5005616;28;20060;-75
2023/06/24 15:22:08;;;;;;;0.20;0.20;;;;;;;;;;5001427;28;20067;-75
2023/06/24 15:24:34;;;;;;;0.93;0.50;;;;;;;;;;5002477;28;20474;-75
2023/06/24 15:27:01;;;;;;;0.30;0.30;;;;;;;;;;5003314;28;20054;-76
2023/06/24 15:29:27;;;;;;;0.40;0.40;;;;;;;;;;5006993;28;20141;-73
2023/06/24 15:31:54;;;;;;;0.73;0.45;;;;;;;;;;5000475;28;20051;-73
2023/06/24 15:34:20;;;;;;;0.57;0.40;;;;;;;;;;5006036;28;20116;-75
2023/06/24 15:36:46;;;;;;;0.30;0.30;;;;;;;;;;5003938;28;20054;-74
2023/06/24 15:39:13;;;;;;;0.30;0.30;;;;;;;;;;5006272;28;20499;-74
2023/06/24 15:41:39;;;;;;;0.60;0.30;;;;;;;;;;5004163;28;20512;-75
2023/06/24 15:44:06;;;;;;;0.80;0.45;;;;;;;;;;4990779;28;20050;-75
2023/06/24 15:46:32;;;;;;;0.38;0.30;;;;;;;;;;4992197;28;20568;-75
2023/06/24 15:48:59;;;;;;;0.50;0.50;;;;;;;;;;5002904;28;20051;-75
2023/06/24 15:51:25;;;;;;;0.40;0.40;;;;;;;;;;5004636;28;20058;-75
2023/06/24 15:53:52;;;;;;;0.40;0.40;;;;;;;;;;5004225;28;20129;-75
2023/06/24 15:56:18;;;;;;;0.45;0.40;;;;;;;;;;5002772;28;20109;-75
2023/06/24 15:58:46;;;;;;;0.25;0.25;;;;;;;;;;5000412;28;20829;-72
2023/06/24 16:01:13;;;;;;;0.70;0.50;;;;;;;;;;4990199;28;20487;-75
2023/06/24 16:03:40;;;;;;;0.32;0.32;;;;;;;;;;5001392;28;20054;-75
2023/06/24 16:06:07;;;;;;;0.50;0.40;;;;;;;;;;5004931;28;20908;-75
2023/06/24 16:08:33;;;;;;;0.30;0.30;;;;;;;;;;4999947;28;20145;-75
2023/06/24 16:11:00;;;;;;;0.35;0.35;;;;;;;;;;5005499;28;20541;-77
2023/06/24 16:13:28;;;;;;;0.40;0.32;;;;;;;;;;5002885;28;20055;-75
2023/06/24 16:15:54;;;;;;;0.40;0.40;;;;;;;;;;5006134;28;20086;-75
2023/06/24 16:18:21;;;;;;;0.60;0.40;;;;;;;;;;4995548;28;20077;-75
2023/06/24 16:20:47;;;;;;;0.40;0.32;;;;;;;;;;5005278;28;20054;-75
2023/06/24 16:23:14;;;;;;;0.30;0.30;;;;;;;;;;4994822;28;20055;-75
2023/06/24 16:25:40;;;;;;;0.38;0.38;;;;;;;;;;4997453;28;20058;-76
2023/06/24 16:28:10;;;;;;;0.77;0.47;;;;;;;;;;5003038;28;20054;-76